Archival Weather

Half Moon Bay

Half Moon Bay, California (KHAF)

Report from: Wednesday, December 6, 2023 2:15 AM PST
Current time: Saturday, February 24, 2024 7:09 AM PST

Current weather – Weather history – Daily summaries
Weather forecast

Present weatherMist
Temperature8.0°C (46.4°F)
Dew point9.0°C (48.2°F)
Winds Calm
Visibility4 mi. (6.4 km)
Clouds Ceiling: Overcast 200 ft. (61 m)
Altimeter30.06 in.Hg (1018 mB)
Relative humidity107 %
Density altitude-837 ft. (-255 m)
Remarks Fully automated report
Automated weather observing station with precipitation discriminator
Flight conditions Low Instrument Meteorological Conditions
Raw dataKHAF 061015Z AUTO 00000KT 4SM BR OVC002 08/09 A3006 RMK AO2
An error has occurred. This application may no longer respond until reloaded. Reload 🗙